Time;durP1;ratioP1;P1;durP2;ratioP2;P2;SDS_P1;SDS_P2;PMS_P1;PMS_P2;Temp;Humidity;BMP_temperature;BMP_pressure;BME280_temperature;BME280_humidity;BME280_pressure;Samples;Min_cycle;Max_cycle;Signal;HPM_P1;HPM_P2
2021/12/17 00:04:59;;;;;;;16.77;11.80;;;9.70;99.90;;;;;;5024825;28;20255;-75
2021/12/17 00:07:26;;;;;;;17.77;11.37;;;9.70;99.90;;;;;;5026515;28;20457;-74
2021/12/17 00:09:54;;;;;;;15.70;10.93;;;9.70;99.90;;;;;;5013661;28;20475;-75
2021/12/17 00:12:22;;;;;;;21.20;11.33;;;9.70;99.90;;;;;;5025892;28;20478;-75
2021/12/17 00:14:49;;;;;;;21.50;12.30;;;9.70;99.90;;;;;;5014308;28;20548;-74
2021/12/17 00:17:22;;;;;;;22.67;12.03;;;9.70;99.90;;;;;;5028926;28;20827;-74
2021/12/17 00:52:20;;;;;;;26.13;13.10;;;9.70;99.90;;;;;;5031033;28;20481;-74
2021/12/17 00:54:45;;;;;;;20.70;12.17;;;9.70;99.90;;;;;;5014831;28;20486;-75
2021/12/17 00:57:19;;;;;;;22.27;12.40;;;9.70;99.90;;;;;;5032694;28;20224;-73
2021/12/17 00:59:48;;;;;;;23.00;13.17;;;9.70;99.90;;;;;;5049356;28;20301;-74
2021/12/17 01:02:17;;;;;;;19.50;12.33;;;9.70;99.90;;;;;;5050966;28;20457;-73
2021/12/17 01:04:49;;;;;;;27.40;13.37;;;9.70;99.90;;;;;;5033864;28;20463;-73
2021/12/17 01:07:17;;;;;;;20.13;13.70;;;9.70;99.90;;;;;;5029540;28;20447;-74
2021/12/17 01:09:45;;;;;;;20.10;12.80;;;9.70;99.90;;;;;;5023914;28;20454;-74
2021/12/17 01:12:12;;;;;;;18.83;11.77;;;9.70;99.90;;;;;;5034349;28;20813;-75
2021/12/17 01:14:57;;;;;;;20.13;12.47;;;9.60;99.90;;;;;;5044434;28;20477;-74
2021/12/17 01:17:42;;;;;;;19.87;11.63;;;9.70;99.90;;;;;;5014338;28;20467;-75
2021/12/17 01:35:28;;;;;;;18.97;11.87;;;9.70;99.90;;;;;;4993047;28;20481;-74
2021/12/17 01:43:19;;;;;;;22.23;13.47;;;9.60;99.90;;;;;;5032273;28;20463;-75
2021/12/17 01:45:45;;;;;;;25.47;13.63;;;9.60;99.90;;;;;;5013988;28;20462;-74
2021/12/17 01:48:18;;;;;;;27.03;14.13;;;9.60;99.90;;;;;;5014397;28;20455;-74
2021/12/17 01:56:29;;;;;;;23.70;14.90;;;9.60;99.90;;;;;;5027027;28;20525;-74
2021/12/17 02:01:41;;;;;;;25.93;13.70;;;9.60;99.90;;;;;;5047046;28;20458;-76
2021/12/17 02:04:07;;;;;;;21.60;13.57;;;9.60;99.90;;;;;;5047446;28;20469;-73
2021/12/17 02:06:36;;;;;;;26.30;14.97;;;9.60;99.90;;;;;;5046536;28;20473;-75
2021/12/17 02:09:15;;;;;;;23.77;13.67;;;9.60;99.90;;;;;;5018191;28;20469;-74
2021/12/17 02:20:43;;;;;;;24.70;13.97;;;9.60;99.90;;;;;;5026747;28;20497;-75
2021/12/17 02:29:02;;;;;;;20.53;12.33;;;9.60;99.90;;;;;;5026798;28;20448;-74
2021/12/17 02:31:31;;;;;;;25.53;14.57;;;9.60;99.90;;;;;;5026984;28;20455;-76
2021/12/17 02:34:21;;;;;;;23.70;13.07;;;9.60;99.90;;;;;;5027820;28;20466;-74
2021/12/17 02:36:49;;;;;;;21.47;12.90;;;9.60;99.90;;;;;;5010424;28;20451;-74
2021/12/17 02:47:17;;;;;;;21.60;13.33;;;9.60;99.90;;;;;;5011047;28;20468;-75
2021/12/17 02:49:45;;;;;;;18.37;12.60;;;9.60;99.90;;;;;;5010597;28;20467;-77
2021/12/17 02:52:13;;;;;;;18.50;12.30;;;9.60;99.90;;;;;;5010295;28;20455;-73
2021/12/17 02:54:39;;;;;;;21.23;12.57;;;9.60;99.90;;;;;;5010494;28;20490;-77
2021/12/17 02:57:07;;;;;;;17.57;11.60;;;9.60;99.90;;;;;;5010175;28;20986;-74
2021/12/17 02:59:34;;;;;;;17.53;10.53;;;9.50;99.90;;;;;;5042194;28;20466;-74
2021/12/17 03:02:03;;;;;;;14.97;10.07;;;9.50;99.90;;;;;;5029505;28;20446;-74
2021/12/17 03:04:30;;;;;;;23.33;11.27;;;9.50;99.90;;;;;;5030305;28;20647;-75
2021/12/17 03:06:57;;;;;;;17.30;10.90;;;9.50;99.90;;;;;;5024084;28;20452;-75
2021/12/17 03:09:41;;;;;;;18.30;10.73;;;9.50;99.90;;;;;;5021832;28;20847;-73
2021/12/17 03:12:15;;;;;;;21.13;10.87;;;9.50;99.90;;;;;;5009274;28;20546;-76
2021/12/17 03:14:48;;;;;;;17.80;11.67;;;9.50;99.90;;;;;;4998230;28;20849;-74
2021/12/17 03:17:23;;;;;;;20.40;12.77;;;9.50;99.90;;;;;;5045994;28;20466;-74
2021/12/17 03:25:05;;;;;;;25.43;12.97;;;9.50;99.90;;;;;;5025585;28;20466;-77
2021/12/17 03:27:31;;;;;;;24.20;13.17;;;9.50;99.90;;;;;;5009710;28;20459;-74
2021/12/17 03:29:57;;;;;;;28.03;13.77;;;9.50;99.90;;;;;;5009377;28;20467;-74
2021/12/17 03:32:23;;;;;;;22.33;12.70;;;9.50;99.90;;;;;;5025603;28;20463;-73
2021/12/17 03:34:50;;;;;;;19.93;11.63;;;9.50;99.90;;;;;;4992062;28;20228;-73
2021/12/17 03:37:16;;;;;;;20.73;11.80;;;9.50;99.90;;;;;;5009318;28;20466;-76
2021/12/17 03:39:47;;;;;;;19.97;12.20;;;9.50;99.90;;;;;;4993382;28;20472;-74
2021/12/17 03:42:15;;;;;;;22.30;12.30;;;9.50;99.90;;;;;;5025809;28;20458;-73
2021/12/17 03:44:40;;;;;;;22.40;12.43;;;9.50;99.90;;;;;;4992278;28;20775;-74
2021/12/17 03:47:06;;;;;;;19.77;13.20;;;9.50;99.90;;;;;;5027077;28;20466;-74
2021/12/17 03:49:52;;;;;;;17.90;12.17;;;9.50;99.90;;;;;;4995325;28;20229;-73
2021/12/17 03:52:19;;;;;;;19.60;11.90;;;9.50;99.90;;;;;;4992362;28;20451;-73
2021/12/17 03:54:46;;;;;;;20.13;12.10;;;9.50;99.90;;;;;;5008728;28;20491;-74
2021/12/17 03:57:17;;;;;;;22.57;13.00;;;9.50;99.90;;;;;;4993162;28;20592;-75
2021/12/17 03:59:46;;;;;;;21.37;12.97;;;9.50;99.90;;;;;;5025224;28;20470;-76
2021/12/17 04:02:13;;;;;;;19.27;11.23;;;9.40;99.90;;;;;;5028466;28;21017;-76
2021/12/17 04:04:40;;;;;;;21.70;11.40;;;9.40;99.90;;;;;;5028270;28;20459;-74
2021/12/17 04:07:44;;;;;;;16.40;10.73;;;9.40;99.90;;;;;;4959146;28;20465;-74
2021/12/17 04:10:13;;;;;;;18.53;10.30;;;9.40;99.90;;;;;;4948495;28;20533;-74
2021/12/17 04:13:02;;;;;;;22.27;12.43;;;9.40;99.90;;;;;;4953974;28;20456;-74
2021/12/17 04:15:36;;;;;;;17.27;10.57;;;9.40;99.90;;;;;;5005415;28;21050;-73
2021/12/17 04:18:07;;;;;;;14.73;10.43;;;9.40;99.90;;;;;;4986840;28;20467;-75
2021/12/17 04:20:34;;;;;;;17.00;10.20;;;9.40;99.90;;;;;;5024779;28;20451;-75
2021/12/17 04:23:01;;;;;;;19.50;11.27;;;9.40;99.90;;;;;;5007590;28;20483;-74
2021/12/17 04:25:28;;;;;;;17.37;9.67;;;9.50;99.90;;;;;;5008757;28;20467;-75
2021/12/17 04:27:58;;;;;;;15.50;9.60;;;9.40;99.90;;;;;;5008795;28;20703;-74
2021/12/17 04:30:25;;;;;;;17.30;10.70;;;9.40;99.90;;;;;;5025297;28;20459;-75
2021/12/17 04:32:53;;;;;;;15.57;10.50;;;9.40;99.90;;;;;;5024145;28;20819;-75
2021/12/17 04:35:19;;;;;;;17.30;9.57;;;9.40;99.90;;;;;;4995442;28;20471;-76
2021/12/17 04:37:49;;;;;;;14.80;9.67;;;9.40;99.90;;;;;;5024667;28;20989;-75
2021/12/17 04:40:16;;;;;;;15.73;9.97;;;9.40;99.90;;;;;;5008690;28;20451;-74
2021/12/17 04:45:13;;;;;;;17.70;10.77;;;9.40;99.90;;;;;;5024505;28;20451;-73
2021/12/17 04:58:58;;;;;;;12.77;9.27;;;9.40;99.90;;;;;;5019699;28;20513;-74
2021/12/17 05:01:24;;;;;;;15.30;9.57;;;9.40;99.90;;;;;;4991815;28;20447;-74
2021/12/17 05:03:50;;;;;;;14.70;9.10;;;9.40;99.90;;;;;;5024227;28;20285;-74
2021/12/17 05:06:18;;;;;;;11.97;9.10;;;9.40;99.90;;;;;;4991704;28;20466;-74
2021/12/17 05:08:57;;;;;;;13.70;9.43;;;9.40;99.90;;;;;;5016606;28;20314;-73
2021/12/17 05:11:48;;;;;;;11.90;7.90;;;9.40;99.90;;;;;;5008056;28;20463;-75
2021/12/17 05:19:48;;;;;;;;;;;;;;;;;;;;;
2021/12/17 05:22:10;;;;;;;13.90;8.17;;;9.30;99.90;;;;;;5043000;28;20449;-74
2021/12/17 05:24:36;;;;;;;13.63;8.30;;;9.30;99.90;;;;;;5024772;28;20239;-75
2021/12/17 05:27:04;;;;;;;12.23;8.13;;;9.30;99.90;;;;;;5007609;28;20467;-73
2021/12/17 05:29:32;;;;;;;9.83;7.47;;;9.30;99.90;;;;;;5008567;28;20524;-76
2021/12/17 05:31:57;;;;;;;11.60;8.00;;;9.30;99.90;;;;;;5010994;28;20479;-75
2021/12/17 05:34:23;;;;;;;16.73;8.70;;;9.30;99.90;;;;;;5011768;28;20220;-75
2021/12/17 05:36:54;;;;;;;12.27;7.93;;;9.30;99.90;;;;;;5011096;28;20244;-76
2021/12/17 05:39:24;;;;;;;13.97;7.20;;;9.30;99.90;;;;;;5011781;28;20467;-73
2021/12/17 05:41:52;;;;;;;6.60;5.90;;;9.30;99.90;;;;;;5010160;28;20462;-75
2021/12/17 05:44:40;;;;;;;13.07;8.03;;;9.30;99.90;;;;;;5027483;28;20467;-73
2021/12/17 05:47:06;;;;;;;16.17;9.10;;;9.30;99.90;;;;;;5010987;28;20447;-74
2021/12/17 05:49:32;;;;;;;15.07;8.97;;;9.30;99.90;;;;;;5011524;28;20482;-75
2021/12/17 05:52:01;;;;;;;12.03;7.93;;;9.30;99.90;;;;;;5010550;28;20451;-75
2021/12/17 05:54:28;;;;;;;14.53;9.60;;;9.30;99.90;;;;;;5010892;28;20539;-73
2021/12/17 05:56:54;;;;;;;13.40;7.97;;;9.30;99.90;;;;;;5010687;28;20463;-75
2021/12/17 05:59:22;;;;;;;11.73;7.33;;;9.20;99.90;;;;;;5011211;28;20466;-74
2021/12/17 06:01:48;;;;;;;16.87;8.47;;;9.20;99.90;;;;;;5010498;28;20463;-74
2021/12/17 06:04:14;;;;;;;11.90;8.17;;;9.20;99.90;;;;;;5027711;28;20589;-74
2021/12/17 06:06:50;;;;;;;12.63;8.87;;;9.20;99.90;;;;;;5013714;28;20458;-75
2021/12/17 06:09:16;;;;;;;13.07;9.00;;;9.20;99.90;;;;;;5017587;28;20447;-74
2021/12/17 06:11:43;;;;;;;17.07;9.40;;;9.20;99.90;;;;;;5010248;28;20455;-76
2021/12/17 06:14:11;;;;;;;17.20;8.87;;;9.20;99.90;;;;;;5028403;28;20838;-74
2021/12/17 06:16:37;;;;;;;12.30;7.97;;;9.20;99.90;;;;;;5030587;28;20809;-75
2021/12/17 06:19:09;;;;;;;11.27;8.60;;;9.20;99.90;;;;;;5030151;28;20470;-74
2021/12/17 06:21:36;;;;;;;13.60;9.43;;;9.10;99.90;;;;;;5046862;28;20462;-76
2021/12/17 06:24:02;;;;;;;13.33;8.70;;;9.10;99.90;;;;;;5013034;28;20578;-76
2021/12/17 06:26:28;;;;;;;13.50;8.70;;;9.20;99.90;;;;;;5010854;28;20455;-74
2021/12/17 06:28:55;;;;;;;12.47;8.80;;;9.10;99.90;;;;;;5026879;28;20456;-73
2021/12/17 06:31:23;;;;;;;17.77;12.70;;;9.10;99.90;;;;;;5010651;28;20458;-73
2021/12/17 06:33:49;;;;;;;19.50;10.90;;;9.10;99.90;;;;;;5010097;28;20224;-76
2021/12/17 06:36:15;;;;;;;14.93;10.70;;;9.10;99.90;;;;;;5010343;28;20818;-75
2021/12/17 06:38:42;;;;;;;18.07;10.17;;;9.10;99.90;;;;;;4994046;28;20533;-74
2021/12/17 06:41:07;;;;;;;13.67;10.13;;;9.10;99.90;;;;;;4993335;28;20506;-77
2021/12/17 06:43:39;;;;;;;17.23;10.00;;;9.10;99.90;;;;;;5027143;28;20227;-76
2021/12/17 06:48:56;;;;;;;14.50;8.87;;;9.00;99.90;;;;;;5028907;28;21106;-74
2021/12/17 07:18:47;;;;;;;9.40;7.33;;;9.00;99.90;;;;;;5049202;28;20442;-74
2021/12/17 07:23:14;;;;;;;;;;;;;;;;;;;;;
2021/12/17 07:33:47;;;;;;;16.83;10.70;;;8.90;99.90;;;;;;5029339;28;20455;-76
2021/12/17 07:36:40;;;;;;;12.97;9.27;;;8.90;99.90;;;;;;5016059;28;20455;-74
2021/12/17 07:39:07;;;;;;;11.87;7.67;;;8.90;99.90;;;;;;5012883;28;20463;-74
2021/12/17 07:41:57;;;;;;;10.27;7.00;;;8.90;99.90;;;;;;5005995;28;20541;-74
2021/12/17 07:44:48;;;;;;;10.63;6.70;;;8.90;99.90;;;;;;5021760;28;20474;-74
2021/12/17 07:47:23;;;;;;;11.30;6.60;;;8.90;99.90;;;;;;5030632;28;20473;-74
2021/12/17 07:50:25;;;;;;;6.93;5.40;;;8.80;99.90;;;;;;5008432;28;20965;-75
2021/12/17 07:53:11;;;;;;;8.30;6.40;;;8.80;99.90;;;;;;5025492;28;20463;-74
2021/12/17 07:55:46;;;;;;;9.30;5.80;;;8.80;99.90;;;;;;5011998;28;20465;-74
2021/12/17 07:58:17;;;;;;;8.80;6.33;;;8.70;99.90;;;;;;5029468;28;20456;-73
2021/12/17 08:00:44;;;;;;;6.87;5.73;;;8.70;99.90;;;;;;5012487;28;20534;-74
2021/12/17 08:03:12;;;;;;;10.33;6.80;;;8.80;99.90;;;;;;5011917;28;20558;-74
2021/12/17 08:05:51;;;;;;;7.30;6.20;;;8.70;99.90;;;;;;5011616;28;20290;-72
2021/12/17 08:08:18;;;;;;;9.47;6.73;;;8.70;99.90;;;;;;5036736;28;20986;-74
2021/12/17 08:10:53;;;;;;;11.07;7.70;;;8.70;99.90;;;;;;5012327;28;20462;-75
2021/12/17 08:13:22;;;;;;;7.20;5.70;;;8.70;99.90;;;;;;5012079;28;20484;-75
2021/12/17 08:24:43;;;;;;;8.77;6.37;;;8.60;99.90;;;;;;5027917;28;20459;-73
2021/12/17 08:32:02;;;;;;;8.73;6.97;;;8.60;99.90;;;;;;5008369;28;20583;-75
2021/12/17 08:34:38;;;;;;;8.13;6.03;;;8.60;99.90;;;;;;5011408;28;20534;-76
2021/12/17 08:37:05;;;;;;;8.63;6.30;;;8.70;99.90;;;;;;5012307;28;20492;-73
2021/12/17 08:39:32;;;;;;;7.30;5.97;;;8.60;99.90;;;;;;5011828;28;20543;-73
2021/12/17 08:42:13;;;;;;;9.70;6.27;;;8.60;99.90;;;;;;5009993;28;20554;-73
2021/12/17 08:44:40;;;;;;;9.20;6.43;;;8.60;99.90;;;;;;5011632;28;20470;-76
2021/12/17 08:47:40;;;;;;;6.13;5.50;;;8.60;99.90;;;;;;5016645;28;20451;-75
2021/12/17 08:50:08;;;;;;;12.50;7.07;;;8.60;99.90;;;;;;5025110;28;20451;-75
2021/12/17 08:52:34;;;;;;;15.73;7.40;;;8.60;99.90;;;;;;5010626;28;20454;-75
2021/12/17 08:55:00;;;;;;;12.80;7.37;;;8.60;99.90;;;;;;5012005;28;20444;-74
2021/12/17 08:57:26;;;;;;;9.27;7.13;;;8.60;99.90;;;;;;5011716;28;20221;-73
2021/12/17 08:59:55;;;;;;;13.30;8.80;;;8.60;99.90;;;;;;5011834;28;20467;-74
2021/12/17 09:02:27;;;;;;;18.57;11.23;;;8.60;99.90;;;;;;5010867;28;20715;-74
2021/12/17 09:05:07;;;;;;;14.90;9.00;;;8.60;99.90;;;;;;5026042;28;20455;-74
2021/12/17 09:07:34;;;;;;;16.70;8.83;;;8.60;99.90;;;;;;5022922;28;20464;-74
2021/12/17 09:10:23;;;;;;;14.10;7.50;;;8.50;99.90;;;;;;5041364;28;20827;-73
2021/12/17 09:12:49;;;;;;;20.63;10.00;;;8.50;99.90;;;;;;5014747;28;20807;-73
2021/12/17 09:15:15;;;;;;;13.60;8.40;;;8.50;99.90;;;;;;5015982;28;20462;-74
2021/12/17 09:18:19;;;;;;;15.30;8.77;;;8.40;99.90;;;;;;5011812;28;20470;-74
2021/12/17 09:20:51;;;;;;;14.27;7.93;;;8.50;99.90;;;;;;5015469;28;20444;-74
2021/12/17 09:23:22;;;;;;;18.97;8.00;;;8.50;99.90;;;;;;5014908;28;20466;-75
2021/12/17 09:25:48;;;;;;;19.20;9.03;;;8.50;99.90;;;;;;5031403;28;20448;-73
2021/12/17 09:28:18;;;;;;;11.67;7.73;;;8.50;99.90;;;;;;5016028;28;20454;-75
2021/12/17 09:30:45;;;;;;;11.70;6.97;;;8.50;99.90;;;;;;5015634;28;20451;-74
2021/12/17 09:33:11;;;;;;;11.50;6.90;;;8.50;99.90;;;;;;5014915;28;20463;-74
2021/12/17 09:35:37;;;;;;;14.20;7.80;;;8.50;99.90;;;;;;5015387;28;20714;-74
2021/12/17 09:38:02;;;;;;;15.17;7.50;;;8.50;99.90;;;;;;5015471;28;20251;-73
2021/12/17 09:40:28;;;;;;;14.83;7.83;;;8.50;99.90;;;;;;5015934;28;20232;-76
2021/12/17 09:42:54;;;;;;;15.37;6.87;;;8.50;99.90;;;;;;5032548;28;20667;-73
2021/12/17 09:45:20;;;;;;;8.67;6.37;;;8.50;99.90;;;;;;5023807;28;20221;-73
2021/12/17 09:47:46;;;;;;;10.63;6.60;;;8.60;99.90;;;;;;5027989;28;20216;-73
2021/12/17 09:50:15;;;;;;;18.03;7.60;;;8.60;99.90;;;;;;4995865;28;20221;-73
2021/12/17 09:52:41;;;;;;;11.87;7.23;;;8.60;99.90;;;;;;4995232;28;20454;-75
2021/12/17 09:55:07;;;;;;;13.97;7.27;;;8.60;99.90;;;;;;5025020;28;20443;-73
2021/12/17 09:57:36;;;;;;;16.23;7.40;;;8.50;99.90;;;;;;5033280;28;20216;-74
2021/12/17 10:00:15;;;;;;;12.13;6.70;;;8.50;99.90;;;;;;5028161;28;20962;-74
2021/12/17 10:02:44;;;;;;;8.00;5.80;;;8.50;99.90;;;;;;4995221;28;20459;-75
2021/12/17 10:05:17;;;;;;;12.83;7.23;;;8.50;99.90;;;;;;5003127;28;20451;-74
2021/12/17 10:07:44;;;;;;;13.47;7.67;;;8.50;99.90;;;;;;5014489;28;20486;-74
2021/12/17 10:10:10;;;;;;;18.13;8.20;;;8.50;99.90;;;;;;5039904;28;20481;-74
2021/12/17 10:12:38;;;;;;;17.60;9.37;;;8.50;99.90;;;;;;5034624;28;20454;-74
2021/12/17 10:15:17;;;;;;;12.27;7.47;;;8.50;99.90;;;;;;5031117;28;20458;-75
2021/12/17 10:17:59;;;;;;;17.10;7.90;;;8.50;99.90;;;;;;5013350;28;20459;-74
2021/12/17 10:20:26;;;;;;;15.30;8.37;;;8.40;99.90;;;;;;5028508;28;20451;-73
2021/12/17 10:23:01;;;;;;;12.87;7.20;;;8.40;99.90;;;;;;5014265;28;20458;-74
2021/12/17 10:25:29;;;;;;;12.07;7.93;;;8.50;99.90;;;;;;5014130;28;20457;-73
2021/12/17 10:27:59;;;;;;;11.77;6.90;;;8.50;99.90;;;;;;5014318;28;20475;-72
2021/12/17 10:30:26;;;;;;;13.40;7.47;;;8.50;99.90;;;;;;5032781;28;20454;-74
2021/12/17 10:32:55;;;;;;;11.20;7.47;;;8.50;99.90;;;;;;5013771;28;20471;-73
2021/12/17 10:35:32;;;;;;;11.03;6.67;;;8.50;99.90;;;;;;5014108;28;20464;-74
2021/12/17 10:38:08;;;;;;;7.60;5.73;;;8.50;99.90;;;;;;5013754;28;20534;-72
2021/12/17 10:43:36;;;;;;;11.77;6.50;;;8.50;99.90;;;;;;5018732;28;20452;-73
2021/12/17 10:46:11;;;;;;;;;;;;;;;;;;;;;
2021/12/17 10:48:53;;;;;;;7.83;5.83;;;8.60;99.90;;;;;;5030922;28;20459;-73
2021/12/17 10:54:20;;;;;;;10.90;7.20;;;8.50;99.90;;;;;;4997212;28;20494;-74
2021/12/17 10:56:52;;;;;;;7.90;5.60;;;8.50;99.90;;;;;;5030427;28;20505;-74
2021/12/17 10:59:20;;;;;;;7.97;5.43;;;8.50;99.90;;;;;;5045151;28;20490;-74
2021/12/17 11:01:53;;;;;;;8.43;5.50;;;8.50;99.90;;;;;;5042348;28;20509;-74
2021/12/17 11:04:32;;;;;;;6.07;5.43;;;8.60;99.90;;;;;;5013499;28;20529;-73
2021/12/17 11:07:13;;;;;;;7.90;4.73;;;8.60;99.90;;;;;;5022604;28;20478;-75
2021/12/17 11:09:39;;;;;;;5.87;4.50;;;8.60;99.90;;;;;;5011838;28;20459;-74
2021/12/17 11:12:12;;;;;;;6.53;5.17;;;8.60;99.90;;;;;;5021943;28;20511;-74
2021/12/17 11:14:38;;;;;;;8.03;4.90;;;8.60;99.90;;;;;;5022493;28;20236;-74
2021/12/17 11:17:04;;;;;;;7.20;5.10;;;8.60;99.90;;;;;;5029957;28;20454;-74
2021/12/17 11:19:31;;;;;;;8.27;5.13;;;8.60;99.90;;;;;;5030986;28;20463;-74
2021/12/17 11:21:57;;;;;;;6.70;5.37;;;8.60;99.90;;;;;;5012964;28;21024;-77
2021/12/17 11:24:23;;;;;;;8.20;5.50;;;8.70;99.90;;;;;;5013106;28;20467;-74
2021/12/17 11:26:50;;;;;;;5.87;5.10;;;8.70;99.90;;;;;;5028660;28;20538;-75
2021/12/17 11:29:17;;;;;;;7.57;5.87;;;8.70;99.90;;;;;;5007047;28;20456;-75
2021/12/17 11:31:43;;;;;;;9.53;5.80;;;8.70;99.90;;;;;;4992218;28;20464;-74
2021/12/17 11:34:10;;;;;;;9.23;5.77;;;8.70;99.90;;;;;;5020010;28;20914;-75
2021/12/17 11:36:35;;;;;;;7.10;5.60;;;8.70;99.90;;;;;;5030222;28;20967;-74
2021/12/17 11:39:21;;;;;;;6.50;4.23;;;8.70;99.90;;;;;;5030122;28;20456;-74
2021/12/17 11:41:55;;;;;;;5.77;4.77;;;8.70;99.90;;;;;;5003389;28;20582;-74
2021/12/17 11:44:27;;;;;;;8.53;4.90;;;8.70;99.90;;;;;;5025781;28;20463;-74
2021/12/17 11:47:08;;;;;;;9.27;4.80;;;8.80;99.90;;;;;;5012110;28;20465;-73
2021/12/17 11:49:47;;;;;;;7.90;5.17;;;8.80;99.90;;;;;;5013293;28;20443;-75
2021/12/17 11:52:14;;;;;;;7.07;5.20;;;8.80;99.90;;;;;;5012984;28;21096;-73
2021/12/17 11:54:40;;;;;;;6.13;4.97;;;8.80;99.90;;;;;;5012949;28;21014;-73
2021/12/17 11:57:10;;;;;;;9.03;6.20;;;8.80;99.90;;;;;;5029253;28;20463;-75
2021/12/17 11:59:39;;;;;;;7.43;5.30;;;8.80;99.90;;;;;;5012804;28;20525;-73
2021/12/17 12:02:15;;;;;;;8.27;5.20;;;8.80;99.90;;;;;;5012768;28;20456;-73
2021/12/17 12:04:48;;;;;;;6.40;4.80;;;8.90;99.90;;;;;;5012750;28;20463;-74
2021/12/17 12:07:17;;;;;;;9.40;5.33;;;8.90;99.90;;;;;;5012628;28;20452;-73
2021/12/17 12:10:00;;;;;;;9.30;5.20;;;8.90;99.90;;;;;;5012425;28;20526;-74
2021/12/17 12:12:28;;;;;;;7.80;4.97;;;8.90;99.90;;;;;;5028350;28;20974;-74
2021/12/17 12:14:55;;;;;;;6.00;4.30;;;8.90;99.90;;;;;;5028574;28;20548;-77
2021/12/17 12:17:58;;;;;;;7.57;5.23;;;8.90;99.90;;;;;;5030362;28;20455;-74
2021/12/17 12:20:49;;;;;;;6.50;4.93;;;8.90;99.90;;;;;;5028720;28;20459;-76
2021/12/17 12:23:24;;;;;;;7.40;4.80;;;8.90;99.90;;;;;;5025254;28;20451;-75
2021/12/17 12:26:25;;;;;;;6.07;4.50;;;9.00;99.90;;;;;;5012429;28;20530;-74
2021/12/17 12:28:54;;;;;;;6.33;4.70;;;9.00;99.90;;;;;;5029950;28;20470;-73
2021/12/17 12:31:19;;;;;;;6.53;4.30;;;9.10;99.90;;;;;;5011809;28;20439;-78
2021/12/17 12:34:04;;;;;;;5.57;3.67;;;9.10;99.90;;;;;;5029685;28;20455;-74
2021/12/17 12:36:51;;;;;;;5.70;3.83;;;9.00;99.90;;;;;;5030301;28;20220;-74
2021/12/17 12:39:35;;;;;;;7.13;4.90;;;9.10;99.90;;;;;;5029059;28;20893;-73
2021/12/17 12:42:20;;;;;;;5.47;4.30;;;9.10;99.90;;;;;;5028364;28;20443;-72
2021/12/17 12:44:46;;;;;;;3.80;3.37;;;9.10;99.90;;;;;;5012016;28;20463;-74
2021/12/17 12:47:15;;;;;;;5.07;4.33;;;9.00;99.90;;;;;;5029275;28;20451;-73
2021/12/17 12:49:48;;;;;;;8.50;4.10;;;9.00;99.90;;;;;;5011579;28;21192;-75
2021/12/17 12:52:16;;;;;;;5.20;3.97;;;9.00;99.90;;;;;;5028528;28;20530;-74
2021/12/17 12:54:41;;;;;;;6.10;3.53;;;9.00;99.90;;;;;;5027974;28;20482;-73
2021/12/17 12:57:08;;;;;;;6.53;4.60;;;8.90;99.90;;;;;;5011671;28;20451;-74
2021/12/17 12:59:34;;;;;;;7.93;4.60;;;8.80;99.90;;;;;;5012737;28;20224;-73
2021/12/17 13:02:00;;;;;;;4.77;4.00;;;8.90;99.90;;;;;;5012029;28;21909;-72
2021/12/17 13:04:31;;;;;;;6.97;4.50;;;9.00;99.90;;;;;;5012462;28;21021;-74
2021/12/17 13:06:57;;;;;;;6.53;4.47;;;9.00;99.90;;;;;;5010631;28;20228;-73
2021/12/17 13:09:29;;;;;;;5.60;4.30;;;9.00;99.90;;;;;;5012875;28;20463;-73
2021/12/17 13:11:55;;;;;;;4.23;3.83;;;9.00;99.90;;;;;;5028258;28;20470;-74
2021/12/17 13:14:25;;;;;;;4.93;3.87;;;9.00;99.90;;;;;;5011803;28;20466;-74
2021/12/17 13:17:19;;;;;;;4.30;3.50;;;9.00;99.90;;;;;;5027922;28;20463;-72
2021/12/17 13:22:56;;;;;;;7.90;5.30;;;9.00;99.90;;;;;;4967470;28;20474;-76
2021/12/17 13:25:27;;;;;;;4.97;3.70;;;9.00;99.90;;;;;;5004540;28;21014;-75
2021/12/17 13:27:54;;;;;;;8.40;3.70;;;9.00;99.90;;;;;;5025391;28;20471;-72
2021/12/17 13:30:27;;;;;;;7.20;4.70;;;9.00;99.90;;;;;;5009226;28;21062;-75
2021/12/17 13:32:54;;;;;;;5.03;3.83;;;9.00;99.90;;;;;;5017252;28;20483;-73
2021/12/17 13:35:21;;;;;;;6.00;4.17;;;9.00;99.90;;;;;;5007241;28;20462;-73
2021/12/17 13:37:52;;;;;;;4.20;3.80;;;9.10;99.90;;;;;;5023050;28;20982;-73
2021/12/17 13:40:23;;;;;;;8.37;4.43;;;9.00;99.90;;;;;;5008316;28;20474;-76
2021/12/17 13:42:49;;;;;;;6.20;3.40;;;9.10;99.90;;;;;;5005350;28;20455;-75
2021/12/17 13:45:22;;;;;;;5.47;4.37;;;9.10;99.90;;;;;;5025552;28;20467;-76
2021/12/17 13:47:55;;;;;;;6.70;4.77;;;9.10;99.90;;;;;;5014028;28;21025;-76
2021/12/17 13:50:44;;;;;;;4.57;3.43;;;9.10;99.90;;;;;;5021601;28;20471;-74
2021/12/17 13:53:15;;;;;;;4.13;3.30;;;9.10;99.90;;;;;;4990946;28;20455;-75
2021/12/17 13:55:51;;;;;;;4.47;3.20;;;9.10;99.90;;;;;;5021498;28;20440;-74
2021/12/17 13:58:21;;;;;;;4.60;3.73;;;9.10;99.90;;;;;;5027869;28;20486;-73
2021/12/17 14:00:52;;;;;;;7.07;4.10;;;9.00;99.90;;;;;;5009817;28;20462;-76
2021/12/17 14:03:21;;;;;;;5.73;4.60;;;9.00;99.90;;;;;;5025687;28;20520;-74
2021/12/17 14:05:56;;;;;;;5.90;3.97;;;9.00;99.90;;;;;;5004289;28;20455;-76
2021/12/17 14:08:23;;;;;;;5.00;3.13;;;9.00;99.90;;;;;;5025856;28;20457;-74
2021/12/17 14:10:50;;;;;;;5.23;2.97;;;9.00;99.90;;;;;;5013714;28;20538;-75
2021/12/17 14:13:16;;;;;;;8.33;3.80;;;9.00;99.90;;;;;;5008992;28;20495;-74
2021/12/17 14:15:43;;;;;;;3.77;3.37;;;9.00;99.90;;;;;;5028865;28;20551;-73
2021/12/17 14:18:10;;;;;;;7.13;3.53;;;9.00;99.90;;;;;;5013867;28;20240;-74
2021/12/17 14:20:55;;;;;;;4.80;3.57;;;9.00;99.90;;;;;;5014322;28;20462;-74
2021/12/17 14:23:26;;;;;;;7.43;3.40;;;9.00;99.90;;;;;;5008989;28;20460;-75
2021/12/17 14:25:53;;;;;;;3.43;3.13;;;9.00;99.90;;;;;;5027185;28;20455;-72
2021/12/17 14:28:25;;;;;;;5.93;4.20;;;9.00;99.90;;;;;;5027666;28;20463;-73
2021/12/17 14:30:58;;;;;;;6.33;3.23;;;9.00;99.90;;;;;;5008869;28;20455;-72
2021/12/17 14:33:30;;;;;;;4.30;3.13;;;9.00;99.90;;;;;;5011870;28;20489;-72
2021/12/17 14:35:58;;;;;;;4.50;3.50;;;9.00;99.90;;;;;;5007852;28;20597;-73
2021/12/17 14:38:48;;;;;;;5.00;3.57;;;9.00;99.90;;;;;;5009906;28;20487;-74
2021/12/17 14:41:18;;;;;;;4.40;3.70;;;9.10;99.90;;;;;;5025885;28;20458;-74
2021/12/17 14:43:52;;;;;;;4.27;3.13;;;9.10;99.90;;;;;;5028153;28;20452;-73
2021/12/17 14:49:06;;;;;;;5.00;3.20;;;9.00;99.90;;;;;;5027071;28;20458;-74
2021/12/17 15:02:47;;;;;;;4.23;2.87;;;9.00;99.90;;;;;;5029535;28;20516;-74
2021/12/17 15:05:15;;;;;;;3.93;3.00;;;9.00;99.90;;;;;;5013248;28;20491;-74
2021/12/17 15:07:41;;;;;;;4.17;3.10;;;9.00;99.90;;;;;;5030449;28;20458;-73
2021/12/17 15:10:09;;;;;;;3.33;2.77;;;9.00;99.90;;;;;;5031276;28;20459;-73
2021/12/17 15:15:22;;;;;;;2.80;2.30;;;8.90;99.90;;;;;;5028596;28;23902;-75
2021/12/17 15:17:50;;;;;;;2.70;2.20;;;8.90;99.90;;;;;;5008825;28;20456;-74
2021/12/17 15:20:19;;;;;;;4.93;2.47;;;8.90;99.90;;;;;;5029510;28;20475;-74
2021/12/17 15:22:44;;;;;;;3.93;2.70;;;8.90;99.90;;;;;;5008275;28;20456;-74
2021/12/17 15:25:13;;;;;;;2.70;2.50;;;8.90;99.90;;;;;;5013182;28;20459;-74
2021/12/17 15:27:39;;;;;;;4.30;3.20;;;8.90;99.90;;;;;;5012770;28;20274;-74
2021/12/17 15:30:13;;;;;;;4.10;3.53;;;8.90;99.90;;;;;;5012812;28;20470;-74
2021/12/17 15:32:39;;;;;;;3.30;2.80;;;8.90;99.90;;;;;;5013275;28;20460;-73
2021/12/17 15:35:06;;;;;;;3.33;3.03;;;8.90;99.90;;;;;;5029086;28;20477;-75
2021/12/17 15:37:32;;;;;;;4.27;2.70;;;8.90;99.90;;;;;;5011568;28;20451;-77
2021/12/17 15:39:58;;;;;;;4.50;2.53;;;8.90;99.90;;;;;;5024622;28;20471;-72
2021/12/17 15:42:23;;;;;;;2.90;2.17;;;8.90;99.90;;;;;;5009785;28;20245;-73
2021/12/17 15:44:49;;;;;;;2.73;2.30;;;8.90;99.90;;;;;;5011505;28;20220;-74
2021/12/17 15:47:15;;;;;;;5.67;2.60;;;8.90;99.90;;;;;;5012665;28;20213;-74
2021/12/17 15:49:41;;;;;;;3.10;2.30;;;8.90;99.90;;;;;;5010073;28;20228;-74
2021/12/17 15:52:08;;;;;;;2.97;2.40;;;8.90;99.90;;;;;;5023734;28;20283;-74
2021/12/17 15:54:38;;;;;;;4.00;3.07;;;8.90;99.90;;;;;;5008889;28;20307;-73
2021/12/17 15:57:05;;;;;;;3.57;2.70;;;8.90;99.90;;;;;;5007925;28;20461;-73
2021/12/17 15:59:31;;;;;;;2.60;2.40;;;8.90;99.90;;;;;;5025917;28;20478;-76
2021/12/17 16:01:58;;;;;;;3.63;2.63;;;8.90;99.90;;;;;;4989911;28;20464;-74
2021/12/17 16:04:24;;;;;;;3.30;2.00;;;8.90;99.90;;;;;;5023394;28;20588;-73
2021/12/17 16:06:50;;;;;;;3.03;2.33;;;8.90;99.90;;;;;;5007522;28;21059;-73
2021/12/17 16:11:10;;;;;;;2.80;2.40;;;8.90;99.90;;;;;;5009792;28;20534;-74
2021/12/17 16:22:50;;;;;;;4.80;3.53;;;9.00;99.90;;;;;;5020629;28;20750;-74
2021/12/17 16:25:16;;;;;;;5.93;3.63;;;9.00;99.90;;;;;;5011950;28;20451;-74
2021/12/17 16:27:42;;;;;;;5.17;3.20;;;9.00;99.90;;;;;;5010091;28;20970;-74
2021/12/17 16:30:08;;;;;;;7.30;3.50;;;9.00;99.90;;;;;;5009713;28;20458;-74
2021/12/17 16:32:35;;;;;;;3.30;3.00;;;9.00;99.90;;;;;;5009201;28;20222;-74
2021/12/17 16:35:01;;;;;;;4.03;3.63;;;9.00;99.90;;;;;;5007957;28;20506;-73